Time;durP1;ratioP1;P1;durP2;ratioP2;P2;SDS_P1;SDS_P2;PMS_P1;PMS_P2;Temp;Humidity;BMP_temperature;BMP_pressure;BME280_temperature;BME280_humidity;BME280_pressure;Samples;Min_cycle;Max_cycle;Signal;HPM_P1;HPM_P2
2023/05/23 00:01:36;;;;;;;5.03;3.53;;;17.90;80.60;;;;;;6180080;22;20009;-58
2023/05/23 00:04:01;;;;;;;3.60;3.30;;;17.90;80.80;;;;;;6179987;22;20425;-57
2023/05/23 00:06:27;;;;;;;5.43;3.58;;;17.90;80.60;;;;;;6180092;22;20009;-56
2023/05/23 00:08:53;;;;;;;5.32;3.70;;;17.90;80.60;;;;;;6180506;22;20329;-56
2023/05/23 00:11:22;;;;;;;3.90;3.38;;;17.90;80.60;;;;;;6180232;22;20013;-58
2023/05/23 00:13:50;;;;;;;4.40;3.47;;;17.90;81.30;;;;;;6180368;22;20177;-55
2023/05/23 00:16:16;;;;;;;4.93;3.95;;;17.90;80.50;;;;;;6180085;22;20001;-56
2023/05/23 00:18:41;;;;;;;5.70;3.33;;;17.90;80.90;;;;;;6179268;22;20024;-54
2023/05/23 00:21:08;;;;;;;4.78;3.55;;;17.80;80.80;;;;;;6180272;22;20050;-55
2023/05/23 00:23:34;;;;;;;4.32;3.47;;;17.80;80.90;;;;;;6179833;22;20410;-57
2023/05/23 00:26:00;;;;;;;3.90;3.30;;;17.80;81.00;;;;;;6180186;22;20005;-54
2023/05/23 00:28:26;;;;;;;4.60;3.72;;;17.80;81.10;;;;;;6180293;22;20001;-56
2023/05/23 00:30:51;;;;;;;5.18;3.50;;;17.80;81.00;;;;;;6179422;22;20008;-56
2023/05/23 00:33:20;;;;;;;4.97;3.60;;;17.80;80.90;;;;;;6179527;22;20081;-54
2023/05/23 00:35:47;;;;;;;5.22;3.38;;;17.70;80.60;;;;;;6180173;22;20153;-56
2023/05/23 00:38:13;;;;;;;7.07;3.85;;;17.70;80.70;;;;;;6283127;22;20016;-57
2023/05/23 00:40:39;;;;;;;3.83;3.42;;;17.70;81.00;;;;;;6180033;23;20376;-55
2023/05/23 00:43:07;;;;;;;6.43;3.80;;;17.70;81.00;;;;;;6180348;22;20455;-55
2023/05/23 00:45:32;;;;;;;4.53;3.70;;;17.60;80.80;;;;;;6179474;22;20013;-59
2023/05/23 00:47:59;;;;;;;4.78;3.60;;;17.60;80.80;;;;;;6179774;22;20005;-55
2023/05/23 00:50:28;;;;;;;4.07;3.40;;;17.60;81.00;;;;;;6179786;22;20013;-56
2023/05/23 00:52:54;;;;;;;4.68;3.20;;;17.60;80.80;;;;;;6179465;22;20337;-55
2023/05/23 00:55:20;;;;;;;3.85;3.45;;;17.60;80.70;;;;;;6178997;22;20012;-56
2023/05/23 00:57:46;;;;;;;4.18;3.00;;;17.60;80.60;;;;;;6179567;22;20005;-55
2023/05/23 01:00:13;;;;;;;3.70;3.30;;;17.60;80.70;;;;;;6179031;22;20329;-55
2023/05/23 01:02:43;;;;;;;4.30;3.58;;;17.50;81.00;;;;;;6178475;22;20033;-56
2023/05/23 01:05:16;;;;;;;5.18;3.65;;;17.50;80.90;;;;;;6179917;22;20027;-56
2023/05/23 01:07:47;;;;;;;4.18;3.50;;;17.50;80.90;;;;;;6178646;22;20028;-56
2023/05/23 01:10:15;;;;;;;4.75;3.40;;;17.50;80.90;;;;;;6180290;22;20019;-55
2023/05/23 01:12:49;;;;;;;4.43;3.28;;;17.50;81.10;;;;;;6179933;22;20008;-56
2023/05/23 01:15:18;;;;;;;4.97;3.45;;;17.50;80.90;;;;;;6179870;22;20009;-55
2023/05/23 01:17:54;;;;;;;6.00;3.67;;;17.50;81.10;;;;;;6179784;22;20001;-56
2023/05/23 01:20:28;;;;;;;5.85;3.70;;;17.40;81.20;;;;;;6179666;22;20016;-57
2023/05/23 01:23:00;;;;;;;4.97;3.47;;;17.40;81.20;;;;;;6179863;22;20040;-56
2023/05/23 01:25:58;;;;;;;4.18;3.60;;;17.40;81.20;;;;;;6180219;22;20005;-56
2023/05/23 01:28:37;;;;;;;3.55;3.20;;;17.40;81.00;;;;;;6179308;23;20579;-55
2023/05/23 01:31:05;;;;;;;4.28;3.45;;;17.40;81.10;;;;;;6178420;22;20005;-57
2023/05/23 01:33:32;;;;;;;7.40;3.30;;;17.40;81.10;;;;;;6178327;22;20029;-56
2023/05/23 01:36:02;;;;;;;3.78;3.40;;;17.40;81.30;;;;;;6179508;22;20118;-54
2023/05/23 01:38:28;;;;;;;4.15;3.50;;;17.30;81.10;;;;;;6179720;22;20001;-56
2023/05/23 01:40:53;;;;;;;4.47;3.60;;;17.30;81.20;;;;;;6179538;23;20008;-57
2023/05/23 01:43:20;;;;;;;3.65;3.30;;;17.30;81.00;;;;;;6180769;22;20005;-56
2023/05/23 01:45:46;;;;;;;4.88;3.53;;;17.30;81.10;;;;;;6178837;22;20032;-55
2023/05/23 01:48:14;;;;;;;7.05;4.10;;;17.30;81.20;;;;;;6282738;22;20126;-56
2023/05/23 01:50:44;;;;;;;4.43;3.72;;;17.30;81.80;;;;;;6180346;22;20016;-57
2023/05/23 01:53:11;;;;;;;4.80;3.80;;;17.20;81.30;;;;;;6178523;22;20036;-55
2023/05/23 01:55:39;;;;;;;3.65;3.05;;;17.30;81.40;;;;;;6179445;22;20090;-56
2023/05/23 01:58:05;;;;;;;4.68;3.70;;;17.20;81.50;;;;;;6179395;22;20001;-60
2023/05/23 02:00:31;;;;;;;5.50;3.70;;;17.20;81.70;;;;;;6179776;22;20368;-56
2023/05/23 02:02:57;;;;;;;4.45;3.58;;;17.20;81.40;;;;;;6178982;22;20012;-56
2023/05/23 02:05:22;;;;;;;4.90;3.47;;;17.20;81.50;;;;;;6282857;22;20062;-55
2023/05/23 02:07:48;;;;;;;4.25;3.50;;;17.20;81.40;;;;;;6178360;22;20078;-57
2023/05/23 02:10:13;;;;;;;3.67;3.25;;;17.10;81.20;;;;;;6178983;22;20009;-56
2023/05/23 02:12:39;;;;;;;4.60;3.45;;;17.10;81.30;;;;;;6179673;22;20005;-57
2023/05/23 02:15:06;;;;;;;7.72;3.85;;;17.10;81.30;;;;;;6179567;22;20005;-58
2023/05/23 02:17:32;;;;;;;4.38;3.10;;;17.10;81.30;;;;;;6179841;22;20430;-56
2023/05/23 02:19:57;;;;;;;4.38;3.80;;;17.10;82.10;;;;;;6283843;22;20003;-55
2023/05/23 02:22:24;;;;;;;5.45;3.70;;;17.10;81.40;;;;;;6178989;22;20068;-57
2023/05/23 02:24:50;;;;;;;4.85;3.92;;;17.10;81.20;;;;;;6179495;22;19997;-56
2023/05/23 02:27:16;;;;;;;4.90;3.55;;;17.10;80.90;;;;;;6282735;22;20009;-52
2023/05/23 02:29:42;;;;;;;5.47;3.30;;;17.10;81.00;;;;;;6178931;22;20043;-55
2023/05/23 02:32:07;;;;;;;4.38;3.33;;;17.10;81.00;;;;;;6179558;22;20387;-56
2023/05/23 02:34:33;;;;;;;4.85;3.70;;;17.10;81.10;;;;;;6179799;22;20338;-57
2023/05/23 02:36:58;;;;;;;7.60;3.95;;;17.10;81.40;;;;;;6178833;22;20013;-60
2023/05/23 02:39:24;;;;;;;4.57;3.65;;;17.10;81.50;;;;;;6179365;22;20426;-57
2023/05/23 02:41:50;;;;;;;6.47;3.65;;;17.10;81.40;;;;;;6179591;22;20542;-56
2023/05/23 02:44:18;;;;;;;4.47;3.30;;;17.10;81.30;;;;;;6179867;22;20131;-55
2023/05/23 02:46:47;;;;;;;4.82;3.50;;;17.20;82.00;;;;;;6180580;22;20020;-58
2023/05/23 02:49:12;;;;;;;5.75;3.42;;;17.20;81.40;;;;;;6181150;22;20020;-57
2023/05/23 02:51:38;;;;;;;5.00;3.38;;;17.20;81.40;;;;;;6180249;22;20370;-57
2023/05/23 02:54:04;;;;;;;3.40;3.10;;;17.30;81.20;;;;;;6180053;22;20452;-56
2023/05/23 02:56:30;;;;;;;4.95;3.60;;;17.30;81.20;;;;;;6180931;22;20005;-55
2023/05/23 02:58:55;;;;;;;3.88;3.33;;;17.30;81.00;;;;;;6180982;22;20001;-57
2023/05/23 03:01:22;;;;;;;6.57;3.75;;;17.30;80.70;;;;;;6179491;22;20016;-57
2023/05/23 03:03:47;;;;;;;4.72;3.47;;;17.40;80.90;;;;;;6180681;23;20807;-55
2023/05/23 03:06:13;;;;;;;4.15;3.47;;;17.40;80.70;;;;;;6180507;22;20036;-56
2023/05/23 03:08:42;;;;;;;4.68;3.28;;;17.50;80.80;;;;;;6180233;22;20100;-57
2023/05/23 03:11:08;;;;;;;5.25;3.60;;;17.50;80.70;;;;;;6180632;22;20010;-54
2023/05/23 03:13:34;;;;;;;5.53;3.80;;;17.50;80.50;;;;;;6179914;23;20063;-53
2023/05/23 03:16:01;;;;;;;5.25;3.33;;;17.60;80.20;;;;;;6181053;22;20008;-52
2023/05/23 03:18:26;;;;;;;4.32;3.60;;;17.70;80.40;;;;;;6179511;22;20051;-53
2023/05/23 03:20:52;;;;;;;5.28;3.75;;;17.80;80.20;;;;;;6180061;22;20002;-53
2023/05/23 03:23:18;;;;;;;3.92;3.47;;;17.90;80.30;;;;;;6178835;22;20040;-55
2023/05/23 03:25:43;;;;;;;4.93;3.88;;;18.00;80.10;;;;;;6180053;22;20005;-55
2023/05/23 03:28:11;;;;;;;4.88;3.42;;;18.20;79.90;;;;;;6180225;22;20080;-54
2023/05/23 03:30:37;;;;;;;5.82;3.42;;;18.30;79.70;;;;;;6177904;22;20005;-57
2023/05/23 03:33:02;;;;;;;8.23;3.58;;;18.60;79.50;;;;;;6178426;22;20340;-54
2023/05/23 03:35:28;;;;;;;4.45;3.60;;;18.80;79.20;;;;;;6179170;22;20009;-55
2023/05/23 03:37:54;;;;;;;4.82;3.50;;;19.10;78.70;;;;;;6177670;22;20029;-55
2023/05/23 03:40:20;;;;;;;4.95;3.50;;;19.50;78.10;;;;;;6178367;22;20001;-55
2023/05/23 03:42:48;;;;;;;3.92;3.47;;;19.90;76.90;;;;;;6177307;22;20440;-55
2023/05/23 03:45:14;;;;;;;3.53;3.05;;;20.30;76.10;;;;;;6177435;22;20029;-55
2023/05/23 03:47:39;;;;;;;4.93;3.25;;;20.90;74.40;;;;;;6177901;22;20001;-57
2023/05/23 03:50:06;;;;;;;4.82;3.50;;;21.50;73.20;;;;;;6178840;22;20002;-57
2023/05/23 03:52:32;;;;;;;5.18;3.30;;;22.10;71.10;;;;;;6175575;22;20009;-55
2023/05/23 03:54:57;;;;;;;3.50;2.97;;;22.90;69.10;;;;;;6175914;22;20073;-56
2023/05/23 03:57:23;;;;;;;4.85;3.35;;;23.70;66.90;;;;;;6175774;22;20005;-55
2023/05/23 03:59:49;;;;;;;4.40;2.97;;;24.50;65.00;;;;;;6176595;22;20021;-55
2023/05/23 04:02:14;;;;;;;3.55;3.20;;;25.20;63.30;;;;;;6175428;22;20008;-55
2023/05/23 04:04:40;;;;;;;4.13;3.10;;;25.80;61.40;;;;;;6175822;22;20009;-55
2023/05/23 04:07:08;;;;;;;4.07;2.85;;;26.40;60.30;;;;;;6177077;22;20005;-56
2023/05/23 04:09:33;;;;;;;4.13;3.03;;;26.80;59.30;;;;;;6178173;22;20009;-56
2023/05/23 04:11:59;;;;;;;4.05;3.20;;;27.00;58.60;;;;;;6178482;22;20020;-53
2023/05/23 04:14:26;;;;;;;3.72;3.25;;;27.30;58.20;;;;;;6178112;22;20013;-58
2023/05/23 04:16:52;;;;;;;4.50;2.80;;;27.80;57.60;;;;;;6178880;22;20009;-58
2023/05/23 04:19:17;;;;;;;4.47;3.40;;;28.30;56.90;;;;;;6178001;22;20004;-56
2023/05/23 04:21:43;;;;;;;3.67;2.83;;;28.80;56.00;;;;;;6177553;22;20085;-58
2023/05/23 04:24:08;;;;;;;3.63;2.78;;;29.30;55.40;;;;;;6178256;22;20017;-56
2023/05/23 04:26:35;;;;;;;3.58;3.20;;;29.80;54.60;;;;;;6178901;22;20032;-56
2023/05/23 04:29:02;;;;;;;4.20;3.15;;;30.30;53.80;;;;;;6178335;22;20012;-55
2023/05/23 04:31:28;;;;;;;4.65;3.08;;;30.70;52.50;;;;;;6176734;22;20341;-56
2023/05/23 04:33:53;;;;;;;4.32;2.95;;;30.60;51.90;;;;;;6178744;22;20050;-56
2023/05/23 04:36:19;;;;;;;3.50;3.20;;;30.40;51.70;;;;;;6178113;22;20013;-57
2023/05/23 04:38:44;;;;;;;4.90;3.15;;;29.90;51.60;;;;;;6178242;22;20010;-56
2023/05/23 04:41:10;;;;;;;3.22;2.92;;;29.50;52.10;;;;;;6177697;22;20005;-58
2023/05/23 04:43:41;;;;;;;3.58;3.08;;;29.00;52.60;;;;;;6178811;22;20001;-56
2023/05/23 04:46:10;;;;;;;5.13;3.20;;;28.60;53.10;;;;;;6178102;22;20005;-57
2023/05/23 04:48:37;;;;;;;6.40;3.55;;;28.50;53.30;;;;;;6177381;22;20009;-56
2023/05/23 04:51:07;;;;;;;6.60;3.53;;;28.60;53.30;;;;;;6178887;22;19997;-57
2023/05/23 04:53:33;;;;;;;4.10;3.30;;;28.50;53.20;;;;;;6179274;22;20029;-57
2023/05/23 04:55:59;;;;;;;4.18;3.47;;;28.40;53.70;;;;;;6178307;22;20012;-56
2023/05/23 04:58:25;;;;;;;3.78;3.00;;;28.70;53.90;;;;;;6178715;22;20027;-57
2023/05/23 05:00:50;;;;;;;6.90;3.40;;;29.10;53.60;;;;;;6177773;22;20005;-57
2023/05/23 05:03:16;;;;;;;4.28;3.35;;;29.70;52.80;;;;;;6176608;22;20343;-58
2023/05/23 05:05:42;;;;;;;4.55;3.55;;;30.20;52.20;;;;;;6177257;22;20439;-58
2023/05/23 05:08:07;;;;;;;4.43;3.20;;;30.60;51.50;;;;;;6177715;22;20005;-54
2023/05/23 05:10:33;;;;;;;4.18;3.30;;;31.10;51.10;;;;;;6177909;22;20425;-56
2023/05/23 05:12:59;;;;;;;4.45;3.30;;;31.50;50.50;;;;;;6178657;22;20085;-57
2023/05/23 05:15:24;;;;;;;3.35;3.00;;;31.90;50.10;;;;;;6178011;22;20076;-55
2023/05/23 05:17:50;;;;;;;3.70;3.15;;;32.20;49.50;;;;;;6176795;22;20700;-56
2023/05/23 05:20:16;;;;;;;4.82;3.60;;;32.30;48.90;;;;;;6176795;22;20336;-55
2023/05/23 05:22:42;;;;;;;3.33;2.92;;;32.10;48.30;;;;;;6177285;22;20013;-56
2023/05/23 05:25:09;;;;;;;4.88;3.00;;;31.70;48.30;;;;;;6178172;22;20359;-55
2023/05/23 05:27:36;;;;;;;4.80;3.50;;;31.20;48.80;;;;;;6176394;22;20084;-55
2023/05/23 05:30:05;;;;;;;5.18;3.45;;;30.50;49.20;;;;;;6176049;22;20009;-56
2023/05/23 05:32:32;;;;;;;4.70;3.20;;;29.70;49.90;;;;;;6175418;22;20378;-58
2023/05/23 05:34:59;;;;;;;3.92;3.45;;;29.00;50.60;;;;;;6176790;22;20452;-55
2023/05/23 05:37:24;;;;;;;4.78;3.85;;;28.30;51.40;;;;;;6177484;23;20005;-58
2023/05/23 05:39:50;;;;;;;4.55;3.47;;;27.60;52.20;;;;;;6176218;22;20039;-58
2023/05/23 05:42:15;;;;;;;3.90;3.45;;;27.10;53.20;;;;;;6177169;22;20023;-56
2023/05/23 05:44:41;;;;;;;3.83;3.15;;;26.60;54.10;;;;;;6173323;22;20501;-58
2023/05/23 05:47:07;;;;;;;4.00;3.35;;;26.20;54.70;;;;;;6175142;22;20013;-58
2023/05/23 05:49:32;;;;;;;5.15;3.90;;;25.80;55.70;;;;;;6176112;22;20005;-56
2023/05/23 05:51:58;;;;;;;4.70;3.42;;;25.50;55.90;;;;;;6176093;22;20005;-56
2023/05/23 05:54:23;;;;;;;7.75;4.18;;;25.30;56.30;;;;;;6174346;22;20724;-56
2023/05/23 05:56:49;;;;;;;5.53;3.70;;;25.10;56.70;;;;;;6172420;22;20017;-58
2023/05/23 05:59:15;;;;;;;4.13;3.72;;;24.90;57.10;;;;;;6170986;22;20444;-57
2023/05/23 06:01:40;;;;;;;4.85;4.00;;;24.70;57.50;;;;;;6172005;22;20058;-57
2023/05/23 06:04:06;;;;;;;7.03;3.55;;;24.60;58.10;;;;;;6168813;22;20077;-56
2023/05/23 06:06:32;;;;;;;4.45;3.35;;;24.30;58.40;;;;;;6169871;22;20009;-59
2023/05/23 06:08:58;;;;;;;5.68;3.72;;;24.20;58.90;;;;;;6171700;22;20005;-58
2023/05/23 06:11:23;;;;;;;5.05;3.88;;;24.00;59.20;;;;;;6172847;22;20021;-57
2023/05/23 06:13:49;;;;;;;5.40;3.92;;;23.80;59.50;;;;;;6173748;22;20016;-56
2023/05/23 06:16:15;;;;;;;10.30;4.40;;;23.70;60.00;;;;;;6174022;22;20009;-59
2023/05/23 06:18:40;;;;;;;5.55;4.07;;;23.60;60.30;;;;;;6172820;22;20092;-59
2023/05/23 06:21:06;;;;;;;5.85;4.40;;;23.40;60.80;;;;;;6169299;22;20135;-57
2023/05/23 06:23:31;;;;;;;4.43;4.00;;;23.40;61.00;;;;;;6169088;22;20069;-57
2023/05/23 06:25:58;;;;;;;6.40;4.00;;;23.20;61.30;;;;;;6174014;22;20005;-56
2023/05/23 06:28:24;;;;;;;4.55;4.05;;;23.10;61.80;;;;;;6172285;22;20012;-59
2023/05/23 06:30:50;;;;;;;6.13;4.38;;;23.10;62.00;;;;;;6172096;22;20009;-58
2023/05/23 06:33:15;;;;;;;4.85;3.90;;;23.00;62.40;;;;;;6174336;22;20058;-57
2023/05/23 06:35:42;;;;;;;4.93;4.20;;;23.00;63.00;;;;;;6174564;22;20009;-56
2023/05/23 06:38:07;;;;;;;8.75;4.68;;;23.00;63.20;;;;;;6171980;22;20001;-55
2023/05/23 06:40:33;;;;;;;4.95;4.45;;;23.10;63.10;;;;;;6171290;22;20066;-57
2023/05/23 06:42:58;;;;;;;4.97;4.40;;;23.10;63.10;;;;;;6173469;22;20032;-59
2023/05/23 06:45:24;;;;;;;6.68;4.63;;;23.00;62.90;;;;;;6171312;22;20279;-58
2023/05/23 06:47:50;;;;;;;5.20;4.32;;;23.00;63.10;;;;;;6167095;22;20035;-59
2023/05/23 06:50:18;;;;;;;5.70;4.85;;;23.00;63.30;;;;;;6167570;22;20057;-58
2023/05/23 06:52:45;;;;;;;4.57;4.10;;;23.00;63.30;;;;;;6166305;22;20005;-57
2023/05/23 06:55:16;;;;;;;4.90;4.40;;;22.90;63.40;;;;;;6169697;22;20085;-56
2023/05/23 06:57:43;;;;;;;7.45;4.30;;;22.90;63.30;;;;;;6170654;22;20094;-55
2023/05/23 07:00:09;;;;;;;4.88;3.90;;;22.90;63.50;;;;;;6170004;22;20163;-56
2023/05/23 07:02:35;;;;;;;5.68;4.40;;;22.90;63.70;;;;;;6168761;22;20096;-55
2023/05/23 07:05:00;;;;;;;5.40;3.97;;;22.80;63.60;;;;;;6270867;22;20092;-58
2023/05/23 07:07:26;;;;;;;8.23;4.70;;;22.80;63.60;;;;;;6164636;22;20154;-56
2023/05/23 07:09:52;;;;;;;5.60;4.25;;;22.80;63.80;;;;;;6166373;22;20016;-56
2023/05/23 07:12:17;;;;;;;4.88;4.07;;;22.80;64.10;;;;;;6167067;22;20456;-55
2023/05/23 07:14:43;;;;;;;7.03;4.43;;;22.80;64.20;;;;;;6168343;22;20038;-57
2023/05/23 07:17:09;;;;;;;5.78;4.25;;;22.70;64.00;;;;;;6162840;22;20016;-58
2023/05/23 07:19:34;;;;;;;6.00;4.57;;;22.70;64.20;;;;;;6166889;22;20016;-58
2023/05/23 07:22:00;;;;;;;6.60;4.63;;;22.70;64.20;;;;;;6170831;22;20412;-56
2023/05/23 07:24:25;;;;;;;6.47;4.30;;;22.60;64.40;;;;;;6171304;22;20005;-56
2023/05/23 07:26:51;;;;;;;5.05;4.18;;;22.60;64.60;;;;;;6173114;22;20425;-57
2023/05/23 07:29:17;;;;;;;7.43;4.72;;;22.60;64.90;;;;;;6167788;22;20587;-58
2023/05/23 07:31:42;;;;;;;5.03;4.53;;;22.50;64.80;;;;;;6164368;22;20111;-58
2023/05/23 07:34:08;;;;;;;6.22;4.82;;;22.50;65.10;;;;;;6167258;22;20020;-58
2023/05/23 07:36:36;;;;;;;6.35;4.38;;;22.50;65.10;;;;;;6162044;22;20009;-56
2023/05/23 07:39:02;;;;;;;5.88;4.35;;;22.50;65.00;;;;;;6167053;22;20009;-57
2023/05/23 07:41:28;;;;;;;4.57;3.92;;;22.50;64.90;;;;;;6166130;23;20758;-56
2023/05/23 07:43:53;;;;;;;4.70;4.20;;;22.50;64.80;;;;;;6165877;22;20002;-56
2023/05/23 07:46:21;;;;;;;5.68;4.15;;;22.50;64.80;;;;;;6166937;22;20009;-58
2023/05/23 07:48:47;;;;;;;5.32;4.25;;;22.50;64.70;;;;;;6167493;22;20002;-58
2023/05/23 07:51:12;;;;;;;5.93;4.18;;;22.60;64.80;;;;;;6162966;22;20066;-56
2023/05/23 07:53:38;;;;;;;5.35;4.18;;;22.60;64.90;;;;;;6169211;22;20010;-57
2023/05/23 07:56:05;;;;;;;4.80;4.10;;;22.60;65.00;;;;;;6165097;22;20016;-56
2023/05/23 07:58:31;;;;;;;5.00;3.85;;;22.60;64.80;;;;;;6167914;22;20005;-56
2023/05/23 08:00:57;;;;;;;4.50;3.90;;;22.70;64.70;;;;;;6166431;22;20007;-58
2023/05/23 08:03:23;;;;;;;4.70;3.90;;;22.70;64.50;;;;;;6168377;23;20503;-55
2023/05/23 08:05:49;;;;;;;6.50;3.83;;;22.80;64.50;;;;;;6166790;22;20013;-56
2023/05/23 08:08:15;;;;;;;6.25;4.00;;;22.80;64.50;;;;;;6168890;22;20515;-55
2023/05/23 08:10:41;;;;;;;6.35;4.18;;;22.90;64.40;;;;;;6169624;22;20009;-56
2023/05/23 08:13:08;;;;;;;6.03;3.95;;;22.90;64.30;;;;;;6168665;22;20632;-58
2023/05/23 08:15:34;;;;;;;7.07;4.22;;;23.00;64.60;;;;;;6165200;22;20016;-57
2023/05/23 08:18:00;;;;;;;4.63;4.20;;;23.00;65.00;;;;;;6168594;22;20001;-56
2023/05/23 08:20:29;;;;;;;4.97;4.22;;;23.00;65.00;;;;;;6169648;22;20005;-58
2023/05/23 08:22:59;;;;;;;4.63;4.18;;;23.00;65.10;;;;;;6162868;22;20017;-59
2023/05/23 08:25:29;;;;;;;7.30;4.20;;;23.00;65.60;;;;;;6172212;22;20001;-56
2023/05/23 08:27:56;;;;;;;4.97;4.18;;;23.00;65.80;;;;;;6170028;22;20002;-58
2023/05/23 08:30:22;;;;;;;4.82;4.32;;;23.00;65.70;;;;;;6166482;22;20001;-57
2023/05/23 08:32:48;;;;;;;6.35;4.40;;;23.00;65.80;;;;;;6167792;22;20001;-55
2023/05/23 08:35:13;;;;;;;5.00;4.47;;;23.00;65.90;;;;;;6165865;22;20066;-57
2023/05/23 08:37:39;;;;;;;6.20;3.63;;;23.00;65.80;;;;;;6164321;22;20009;-59
2023/05/23 08:40:11;;;;;;;6.28;4.00;;;23.00;65.10;;;;;;6164373;22;20001;-57
2023/05/23 08:42:37;;;;;;;4.80;4.00;;;23.00;65.20;;;;;;6165475;22;20005;-56
2023/05/23 08:45:03;;;;;;;5.20;3.60;;;23.00;65.00;;;;;;6164935;22;20447;-57
2023/05/23 08:47:32;;;;;;;4.40;3.90;;;23.00;64.50;;;;;;6162696;22;20834;-56
2023/05/23 08:50:00;;;;;;;6.22;4.15;;;23.10;64.30;;;;;;6169426;22;20101;-59
2023/05/23 08:52:28;;;;;;;6.30;4.00;;;23.00;64.50;;;;;;6165801;22;20017;-57
2023/05/23 08:54:55;;;;;;;6.25;4.13;;;23.10;64.90;;;;;;6167823;22;20020;-57
2023/05/23 08:57:21;;;;;;;6.18;4.70;;;23.00;65.00;;;;;;6167482;23;20009;-56
2023/05/23 08:59:48;;;;;;;5.78;4.50;;;23.00;64.60;;;;;;6168682;22;20008;-57
2023/05/23 09:02:15;;;;;;;8.15;4.55;;;23.00;64.20;;;;;;6161597;22;20093;-58
2023/05/23 09:04:41;;;;;;;5.38;4.25;;;23.00;64.20;;;;;;6164600;22;20429;-58
2023/05/23 09:07:08;;;;;;;5.05;3.97;;;23.00;64.00;;;;;;6168218;22;20017;-58
2023/05/23 09:09:34;;;;;;;5.97;4.70;;;23.00;64.10;;;;;;6170122;22;20009;-58
2023/05/23 09:12:02;;;;;;;6.32;4.18;;;23.10;64.20;;;;;;6165896;22;20039;-55
2023/05/23 09:14:30;;;;;;;5.53;3.83;;;23.10;63.70;;;;;;6172456;22;20016;-55
2023/05/23 09:17:01;;;;;;;6.00;3.92;;;23.10;63.50;;;;;;6169059;22;20078;-58
2023/05/23 09:19:27;;;;;;;;;;;23.20;63.90;;;;;;6171385;22;20067;-57
2023/05/23 09:21:53;;;;;;;5.90;3.75;;;23.10;63.80;;;;;;6168818;23;19943;-56
2023/05/23 09:24:19;;;;;;;5.75;3.60;;;23.20;63.60;;;;;;6166896;22;20069;-56
2023/05/23 09:26:48;;;;;;;4.55;3.33;;;23.20;63.10;;;;;;6167956;23;20648;-56
2023/05/23 09:29:19;;;;;;;4.65;3.25;;;23.20;63.10;;;;;;6171288;22;20008;-56
2023/05/23 09:31:45;;;;;;;4.68;3.30;;;23.20;63.10;;;;;;6170177;22;20020;-57
2023/05/23 09:34:11;;;;;;;6.65;4.22;;;23.20;63.00;;;;;;6171060;22;20009;-56
2023/05/23 09:36:39;;;;;;;4.55;4.05;;;23.20;63.50;;;;;;6166502;22;20009;-59
2023/05/23 09:39:06;;;;;;;3.80;3.40;;;23.20;63.80;;;;;;6168079;22;20005;-54
2023/05/23 09:41:34;;;;;;;3.72;3.20;;;23.20;63.50;;;;;;6169154;22;20005;-56
2023/05/23 09:44:05;;;;;;;4.07;3.38;;;23.10;63.50;;;;;;6169554;22;20313;-58
2023/05/23 09:46:33;;;;;;;;;;;23.00;63.80;;;;;;6169935;22;20037;-59
2023/05/23 09:48:59;;;;;;;4.10;3.10;;;22.90;63.90;;;;;;6169733;22;19908;-57
2023/05/23 09:51:25;;;;;;;5.50;3.70;;;22.90;63.90;;;;;;6164123;22;20031;-55
2023/05/23 09:53:51;;;;;;;6.20;4.10;;;22.90;64.00;;;;;;6169044;22;20017;-58
2023/05/23 09:56:17;;;;;;;4.68;3.97;;;22.80;64.10;;;;;;6166437;22;20043;-57
2023/05/23 09:58:48;;;;;;;3.85;3.45;;;22.80;64.20;;;;;;6165345;22;20025;-57
2023/05/23 10:01:14;;;;;;;4.65;3.58;;;22.80;64.10;;;;;;6165187;22;20589;-58
2023/05/23 10:03:53;;;;;;;5.25;3.63;;;22.80;64.40;;;;;;6166872;22;20076;-59
2023/05/23 10:06:52;;;;;;;4.88;3.20;;;22.80;64.70;;;;;;6162975;22;20016;-55
2023/05/23 10:09:22;;;;;;;6.18;3.67;;;22.80;64.10;;;;;;6164556;22;20012;-55
2023/05/23 10:11:56;;;;;;;5.50;3.78;;;22.80;63.90;;;;;;6164620;22;20012;-57
2023/05/23 10:14:22;;;;;;;6.85;3.75;;;22.80;63.80;;;;;;6163554;22;20358;-57
2023/05/23 10:17:09;;;;;;;5.82;3.72;;;22.80;64.00;;;;;;6166635;22;20044;-58
2023/05/23 10:19:42;;;;;;;8.13;3.42;;;22.80;64.40;;;;;;6168154;22;20011;-56
2023/05/23 10:22:11;;;;;;;5.03;3.40;;;22.80;64.80;;;;;;6167737;22;20021;-59
2023/05/23 10:24:37;;;;;;;4.40;3.88;;;22.80;64.60;;;;;;6169815;22;20005;-59
2023/05/23 10:27:03;;;;;;;361.02;84.18;;;22.80;64.30;;;;;;6164085;22;20043;-56
2023/05/23 10:29:30;;;;;;;71.72;20.42;;;22.80;65.50;;;;;;6268870;22;20477;-58
2023/05/23 10:31:56;;;;;;;8.27;5.18;;;22.90;65.80;;;;;;6168339;22;20036;-57
2023/05/23 10:34:46;;;;;;;7.70;4.07;;;22.90;65.80;;;;;;6168927;22;20056;-56
2023/05/23 10:37:24;;;;;;;7.85;3.95;;;22.90;65.90;;;;;;6170804;22;20009;-59
2023/05/23 10:40:10;;;;;;;3.97;3.47;;;23.00;65.70;;;;;;6172401;22;19997;-56
2023/05/23 10:42:44;;;;;;;5.78;3.65;;;23.00;64.40;;;;;;6165280;22;20450;-58
2023/05/23 10:45:15;;;;;;;4.93;3.83;;;23.10;64.00;;;;;;6169619;22;20001;-57
2023/05/23 10:47:41;;;;;;;5.70;3.80;;;23.10;63.70;;;;;;6163749;23;20015;-55
2023/05/23 10:50:10;;;;;;;4.00;3.53;;;23.20;63.20;;;;;;6169139;22;20009;-59
2023/05/23 10:52:40;;;;;;;4.38;3.25;;;23.30;62.80;;;;;;6165928;22;20008;-58
2023/05/23 10:55:14;;;;;;;4.47;3.78;;;23.30;62.80;;;;;;6167459;22;20108;-55
2023/05/23 10:57:42;;;;;;;4.75;3.65;;;23.40;62.20;;;;;;6160885;22;20009;-58
2023/05/23 11:00:17;;;;;;;4.82;3.50;;;23.40;62.40;;;;;;6161550;22;20008;-57
2023/05/23 11:02:54;;;;;;;5.10;3.28;;;23.40;61.70;;;;;;6156643;23;20009;-59
2023/05/23 11:05:21;;;;;;;4.72;3.20;;;23.50;62.00;;;;;;6162452;22;20005;-59
2023/05/23 11:08:26;;;;;;;7.15;3.75;;;23.50;61.90;;;;;;6165968;22;20009;-57
2023/05/23 11:11:00;;;;;;;5.05;3.28;;;23.60;61.70;;;;;;6198413;23;20356;-57
2023/05/23 11:13:45;;;;;;;4.30;3.45;;;23.60;61.90;;;;;;6198734;23;20791;-56
2023/05/23 11:16:47;;;;;;;8.02;3.50;;;23.60;62.60;;;;;;6178056;22;20012;-58
2023/05/23 11:19:24;;;;;;;4.82;3.50;;;23.70;62.30;;;;;;6187201;22;20020;-56
2023/05/23 11:22:09;;;;;;;4.03;3.25;;;23.70;61.90;;;;;;6168926;22;20089;-59
2023/05/23 11:24:49;;;;;;;3.75;3.33;;;23.70;61.90;;;;;;6165503;22;20032;-59
2023/05/23 11:27:15;;;;;;;4.78;3.45;;;23.70;62.80;;;;;;6164370;22;20034;-59
2023/05/23 11:29:41;;;;;;;4.07;3.63;;;23.70;61.70;;;;;;6163867;22;20009;-59
2023/05/23 11:32:13;;;;;;;3.58;3.05;;;23.70;61.50;;;;;;6166320;22;20337;-60
2023/05/23 11:34:39;;;;;;;5.88;3.40;;;23.60;61.40;;;;;;6165041;22;20061;-59
2023/05/23 11:37:05;;;;;;;6.43;3.58;;;23.60;61.60;;;;;;6161084;22;20378;-58
2023/05/23 11:39:30;;;;;;;4.35;3.30;;;23.60;61.70;;;;;;6163693;22;20008;-58
2023/05/23 11:42:02;;;;;;;5.68;4.15;;;23.60;61.50;;;;;;6160674;22;20005;-58
2023/05/23 11:44:29;;;;;;;4.45;3.25;;;23.50;61.50;;;;;;6158756;22;19997;-56
2023/05/23 11:47:07;;;;;;;4.53;3.55;;;23.50;61.50;;;;;;6159742;22;20009;-58
2023/05/23 11:49:37;;;;;;;4.28;3.40;;;23.40;61.80;;;;;;6166038;22;20016;-58
2023/05/23 11:52:05;;;;;;;7.43;3.90;;;23.40;61.90;;;;;;6163170;22;20108;-58
2023/05/23 11:54:31;;;;;;;4.90;3.88;;;23.40;61.90;;;;;;6165318;22;20009;-58
2023/05/23 11:56:57;;;;;;;5.15;3.67;;;23.40;62.00;;;;;;6163518;23;20671;-56
2023/05/23 11:59:25;;;;;;;5.43;3.38;;;23.40;62.00;;;;;;6169161;22;20062;-58
2023/05/23 12:01:54;;;;;;;5.68;3.92;;;23.40;61.80;;;;;;6161162;22;20001;-58
2023/05/23 12:04:20;;;;;;;4.65;3.22;;;23.30;61.70;;;;;;6163041;22;20419;-59
2023/05/23 12:06:48;;;;;;;4.20;3.30;;;23.30;61.40;;;;;;6159805;22;20749;-56
2023/05/23 12:09:14;;;;;;;4.15;3.30;;;23.30;61.30;;;;;;6169176;22;20069;-56
2023/05/23 12:11:41;;;;;;;5.45;3.60;;;23.20;61.10;;;;;;6164482;22;20036;-59
2023/05/23 12:14:08;;;;;;;6.05;3.35;;;23.20;61.10;;;;;;6164000;22;20435;-58
2023/05/23 12:16:34;;;;;;;2.92;2.72;;;23.20;61.00;;;;;;6165697;22;20456;-58
2023/05/23 12:19:01;;;;;;;5.03;3.40;;;23.20;60.90;;;;;;6157706;22;20012;-58
2023/05/23 12:21:45;;;;;;;5.47;3.38;;;23.20;61.10;;;;;;6167666;22;20001;-59
2023/05/23 12:24:19;;;;;;;4.47;3.53;;;23.10;61.50;;;;;;6166505;22;20017;-57
2023/05/23 12:26:54;;;;;;;4.82;3.53;;;23.20;62.20;;;;;;6166075;22;20016;-57
2023/05/23 12:29:34;;;;;;;5.45;3.25;;;23.10;61.90;;;;;;6160788;22;20134;-59
2023/05/23 12:32:00;;;;;;;6.03;3.65;;;23.20;61.60;;;;;;6168458;23;20005;-58
2023/05/23 12:34:26;;;;;;;7.85;3.63;;;23.20;61.30;;;;;;6168199;22;20009;-58
2023/05/23 12:36:57;;;;;;;3.28;2.80;;;23.20;61.30;;;;;;6166835;22;20011;-57
2023/05/23 12:39:27;;;;;;;3.75;3.10;;;23.30;61.00;;;;;;6166131;22;20825;-56
2023/05/23 12:41:55;;;;;;;5.28;3.70;;;23.30;60.60;;;;;;6163158;23;20416;-59
2023/05/23 12:44:21;;;;;;;3.30;3.00;;;23.30;60.70;;;;;;6166848;22;20009;-55
2023/05/23 12:46:47;;;;;;;4.20;3.40;;;23.40;60.60;;;;;;6162231;22;20009;-58
2023/05/23 12:49:12;;;;;;;5.22;3.38;;;23.40;60.50;;;;;;6163950;22;20012;-57
2023/05/23 12:51:39;;;;;;;7.15;5.50;;;23.40;60.70;;;;;;6166318;22;20143;-56